Time;durP1;ratioP1;P1;durP2;ratioP2;P2;SDS_P1;SDS_P2;PMS_P1;PMS_P2;Temp;Humidity;BMP_temperature;BMP_pressure;BME280_temperature;BME280_humidity;BME280_pressure;Samples;Min_cycle;Max_cycle;Signal;HPM_P1;HPM_P2
2021/09/03 00:00:10;;;;;;;;;15.50;14.50;;;;;21.86;51.93;101414.72;5060634;28;45430;-62
2021/09/03 00:02:37;;;;;;;;;19.25;18.50;;;;;21.83;51.57;101413.03;5076374;27;47273;-62
2021/09/03 00:05:06;;;;;;;;;17.00;14.50;;;;;21.83;51.71;101407.63;5078099;28;45923;-62
2021/09/03 00:07:32;;;;;;;;;18.00;18.00;;;;;21.83;52.31;101409.44;5078742;28;46431;-62
2021/09/03 00:09:57;;;;;;;;;19.50;19.00;;;;;21.80;51.84;101407.81;5079600;27;45737;-62
2021/09/03 00:12:23;;;;;;;;;18.25;18.25;;;;;21.80;52.13;101405.09;5078560;28;47311;-62
2021/09/03 00:14:49;;;;;;;;;17.25;17.25;;;;;21.79;52.46;101408.78;5077335;28;45409;-62
2021/09/03 00:17:15;;;;;;;;;22.00;19.00;;;;;21.77;52.58;101404.41;5077948;28;45677;-62
2021/09/03 00:19:40;;;;;;;;;17.00;17.00;;;;;21.76;52.72;101397.28;5078683;28;45406;-62
2021/09/03 00:22:06;;;;;;;;;20.75;19.50;;;;;21.73;52.13;101395.63;5077891;27;47264;-62
2021/09/03 00:24:32;;;;;;;;;18.50;17.00;;;;;21.71;52.10;101397.50;5077892;28;45832;-62
2021/09/03 00:26:57;;;;;;;;;16.00;16.00;;;;;21.71;52.50;101392.97;5078821;27;45491;-62
2021/09/03 00:29:23;;;;;;;;;9.25;7.75;;;;;21.70;52.11;101393.06;5059086;28;45816;-62
2021/09/03 00:31:48;;;;;;;;;20.50;20.00;;;;;21.68;52.29;101395.00;5075909;27;45862;-62
2021/09/03 00:34:14;;;;;;;;;20.75;20.75;;;;;21.65;53.05;101398.75;5078615;27;45578;-62
2021/09/03 00:36:40;;;;;;;;;23.00;21.00;;;;;21.63;52.78;101392.56;5077245;27;45530;-62
2021/09/03 00:39:06;;;;;;;;;20.00;20.00;;;;;21.61;52.96;101389.09;5060011;28;45634;-64
2021/09/03 00:41:31;;;;;;;;;26.75;23.75;;;;;21.60;52.68;101389.19;5077742;28;46444;-62
2021/09/03 00:43:57;;;;;;;;;18.75;17.50;;;;;21.58;52.92;101388.38;5077985;27;45251;-62
2021/09/03 00:46:22;;;;;;;;;17.75;17.75;;;;;21.56;52.88;101387.59;5078215;27;45440;-62
2021/09/03 00:48:48;;;;;;;;;18.75;18.75;;;;;21.54;52.98;101374.19;5078584;28;45492;-62
2021/09/03 00:51:13;;;;;;;;;22.00;21.50;;;;;21.54;53.00;101378.72;5078416;28;48241;-62
2021/09/03 00:53:38;;;;;;;;;17.00;17.00;;;;;21.52;53.29;101372.53;5077896;28;45803;-62
2021/09/03 00:56:04;;;;;;;;;19.00;17.50;;;;;21.50;53.21;101360.94;5082953;27;45397;-62
2021/09/03 00:58:30;;;;;;;;;20.00;20.00;;;;;21.49;53.21;101364.63;5062713;28;45574;-63
2021/09/03 01:00:55;;;;;;;;;19.50;17.50;;;;;21.47;53.06;101361.09;5083847;27;45758;-63
2021/09/03 01:03:21;;;;;;;;;20.25;19.50;;;;;21.44;53.00;101362.16;5082134;27;45858;-62
2021/09/03 01:05:47;;;;;;;;;19.00;18.75;;;;;21.42;53.30;101367.66;5064233;28;45357;-63
2021/09/03 01:08:12;;;;;;;;;20.00;19.75;;;;;21.41;53.34;101355.09;5082517;27;45333;-62
2021/09/03 01:10:39;;;;;;;;;21.25;20.75;;;;;21.40;53.17;101357.91;5081447;27;45968;-62
2021/09/03 01:13:04;;;;;;;;;18.25;18.25;;;;;21.39;53.39;101359.72;5081555;27;45818;-62
2021/09/03 01:15:30;;;;;;;;;24.00;23.75;;;;;21.36;53.31;101349.09;5079307;27;45639;-63
2021/09/03 01:17:56;;;;;;;;;21.00;20.00;;;;;21.34;53.43;101356.44;5081402;27;45347;-62
2021/09/03 01:20:22;;;;;;;;;22.00;20.50;;;;;21.33;53.86;101353.78;5088384;27;47251;-62
2021/09/03 01:22:47;;;;;;;;;22.75;21.00;;;;;21.31;53.81;101356.56;5062639;28;45796;-62
2021/09/03 01:25:17;;;;;;;;;20.25;19.25;;;;;21.29;54.12;101345.00;5080436;27;45452;-62
2021/09/03 01:27:43;;;;;;;;;19.00;17.00;;;;;21.27;53.60;101341.50;5085184;27;45510;-62
2021/09/03 01:30:14;;;;;;;;;20.50;18.25;;;;;21.25;54.17;101339.84;5091160;27;47898;-62
2021/09/03 01:32:41;;;;;;;;;24.00;22.50;;;;;21.24;54.22;101341.66;5079612;27;45681;-62
2021/09/03 01:35:07;;;;;;;;;23.00;22.00;;;;;21.24;53.74;101341.66;5080856;27;45393;-62
2021/09/03 01:37:33;;;;;;;;;23.25;22.00;;;;;21.22;54.16;101340.88;5081200;27;45340;-63
2021/09/03 01:39:59;;;;;;;;;20.50;20.00;;;;;21.19;54.01;101337.47;5079862;27;46918;-62
2021/09/03 01:42:24;;;;;;;;;21.50;21.50;;;;;21.16;53.71;101331.28;5080967;27;46267;-63
2021/09/03 01:44:50;;;;;;;;;19.75;19.25;;;;;21.14;54.38;101329.63;5079829;27;45312;-63
2021/09/03 01:47:15;;;;;;;;;23.50;21.50;;;;;21.14;54.14;101333.19;5080682;27;45430;-62
2021/09/03 01:49:40;;;;;;;;;24.75;24.75;;;;;21.12;54.64;101328.84;5080662;27;48307;-62
2021/09/03 01:52:06;;;;;;;;;24.25;22.75;;;;;21.10;54.15;101334.34;5062488;28;45736;-62
2021/09/03 01:54:31;;;;;;;;;24.00;23.25;;;;;21.08;54.01;101330.81;5080474;27;45282;-63
2021/09/03 01:56:57;;;;;;;;;26.25;22.75;;;;;21.07;54.28;101330.91;5080366;27;45233;-62
2021/09/03 01:59:22;;;;;;;;;22.25;21.25;;;;;21.05;54.67;101325.63;5080253;27;47181;-62
2021/09/03 02:01:48;;;;;;;;;21.50;21.00;;;;;21.04;54.21;101333.78;5080451;27;45838;-62
2021/09/03 02:04:13;;;;;;;;;28.75;25.75;;;;;21.01;54.29;101336.66;5080611;27;45305;-62
2021/09/03 02:06:39;;;;;;;;;22.25;21.25;;;;;21.00;54.61;101337.63;5069254;27;45691;-62
2021/09/03 02:09:04;;;;;;;;;25.25;25.25;;;;;20.98;54.57;101331.44;5079400;27;48111;-62
2021/09/03 02:11:31;;;;;;;;;22.75;22.75;;;;;20.95;54.50;101327.06;5080453;27;45980;-62
2021/09/03 02:13:56;;;;;;;;;24.75;22.25;;;;;20.94;54.55;101328.03;5079354;27;45643;-62
2021/09/03 02:16:22;;;;;;;;;29.50;26.25;;;;;20.94;55.07;101319.94;5080260;27;45432;-62
2021/09/03 02:18:47;;;;;;;;;26.25;24.50;;;;;20.92;54.75;101319.16;5081170;27;48468;-62
2021/09/03 02:21:13;;;;;;;;;30.00;26.50;;;;;20.92;54.56;101326.38;5086393;27;45525;-62
2021/09/03 02:23:38;;;;;;;;;25.75;25.25;;;;;20.90;54.97;101322.91;5080076;27;45612;-61
2021/09/03 02:26:04;;;;;;;;;26.25;24.00;;;;;20.88;54.52;101320.28;5080512;27;45531;-62
2021/09/03 02:28:30;;;;;;;;;24.25;22.75;;;;;20.84;54.86;101319.59;5089654;27;48238;-62
2021/09/03 02:30:55;;;;;;;;;25.50;25.50;;;;;20.84;55.24;101321.41;5079741;27;45277;-62
2021/09/03 02:33:21;;;;;;;;;27.25;25.25;;;;;20.80;54.87;101318.00;5076175;27;45231;-62
2021/09/03 02:35:46;;;;;;;;;28.75;28.75;;;;;20.79;55.45;101324.34;5080500;27;45391;-62
2021/09/03 02:38:12;;;;;;;;;32.50;31.75;;;;;20.77;55.09;101320.00;5079798;27;48073;-62
2021/09/03 02:40:38;;;;;;;;;29.75;27.25;;;;;20.74;55.04;101321.03;5079580;27;45326;-63
2021/09/03 02:43:03;;;;;;;;;35.50;31.50;;;;;20.73;55.48;101322.00;5062042;27;45577;-63
2021/09/03 02:45:29;;;;;;;;;31.25;28.00;;;;;20.72;55.55;101312.16;5080437;27;45325;-64
2021/09/03 02:47:55;;;;;;;;;24.75;24.75;;;;;20.70;55.20;101313.19;5079433;27;47347;-62
2021/09/03 02:50:21;;;;;;;;;29.00;26.00;;;;;20.68;55.30;101309.69;5080058;28;45844;-62
2021/09/03 02:52:46;;;;;;;;;33.25;27.50;;;;;20.68;55.69;101313.28;5079281;27;45705;-62
2021/09/03 02:55:12;;;;;;;;;29.50;26.75;;;;;20.68;55.68;101310.56;5083195;27;45533;-61
2021/09/03 02:57:38;;;;;;;;;25.25;24.00;;;;;20.66;55.63;101311.63;5062597;28;46974;-62
2021/09/03 03:00:06;;;;;;;;;31.00;29.00;;;;;20.64;55.17;101309.00;5061360;27;45372;-63
2021/09/03 03:02:31;;;;;;;;;35.50;33.25;;;;;20.63;55.46;101306.41;5080382;27;45301;-62
2021/09/03 03:04:57;;;;;;;;;29.25;28.50;;;;;20.61;55.82;101316.41;5064751;28;46206;-62
2021/09/03 03:07:22;;;;;;;;;34.75;31.00;;;;;20.59;55.74;101304.81;5079598;27;45498;-62
2021/09/03 03:09:48;;;;;;;;;30.75;29.25;;;;;20.57;55.80;101308.44;5074461;27;45583;-62
2021/09/03 03:12:15;;;;;;;;;29.75;27.75;;;;;20.55;55.47;101307.66;5080017;27;45385;-62
2021/09/03 03:14:40;;;;;;;;;29.75;29.50;;;;;20.53;55.64;101311.41;5078690;27;45486;-62
2021/09/03 03:17:06;;;;;;;;;30.00;29.25;;;;;20.51;55.86;101302.53;5074725;27;47399;-62
2021/09/03 03:19:31;;;;;;;;;29.50;29.25;;;;;20.49;55.83;101294.53;5076965;27;45354;-62
2021/09/03 03:21:57;;;;;;;;;30.50;30.00;;;;;20.48;55.44;101303.56;5078360;27;45855;-62
2021/09/03 03:24:23;;;;;;;;;30.75;28.25;;;;;20.46;55.41;101300.09;5077989;27;45721;-62
2021/09/03 03:26:49;;;;;;;;;29.25;27.75;;;;;20.45;55.40;101300.16;5087616;27;47559;-62
2021/09/03 03:29:15;;;;;;;;;28.00;27.00;;;;;20.43;55.89;101297.53;5085318;27;45421;-62
2021/09/03 03:31:40;;;;;;;;;27.75;27.25;;;;;20.43;55.36;101300.22;5082207;27;45443;-62
2021/09/03 03:34:06;;;;;;;;;29.50;26.75;;;;;20.41;55.76;101295.84;5079404;27;45667;-62
2021/09/03 03:36:32;;;;;;;;;29.00;27.75;;;;;20.40;55.53;101296.81;5079140;27;48307;-63
2021/09/03 03:38:57;;;;;;;;;31.00;29.75;;;;;20.37;56.06;101295.16;5078377;27;45387;-62
2021/09/03 03:41:23;;;;;;;;;29.25;28.50;;;;;20.35;56.06;101286.28;5074962;27;45489;-62
2021/09/03 03:43:49;;;;;;;;;31.75;29.75;;;;;20.36;55.70;101289.84;5061871;28;45318;-62
2021/09/03 03:46:14;;;;;;;;;30.00;27.25;;;;;20.34;55.63;101284.53;5078631;27;47191;-62
2021/09/03 03:48:40;;;;;;;;;31.75;29.75;;;;;20.34;55.82;101275.59;5060555;28;45499;-62
2021/09/03 03:51:06;;;;;;;;;28.50;27.00;;;;;20.33;55.65;101276.50;5073250;27;45399;-63
2021/09/03 03:53:31;;;;;;;;;29.75;28.25;;;;;20.33;55.78;101285.50;5074346;27;45696;-63
2021/09/03 03:55:57;;;;;;;;;31.25;30.00;;;;;20.31;56.15;101284.69;5078372;27;47212;-63
2021/09/03 03:58:23;;;;;;;;;33.25;31.25;;;;;20.29;56.14;101290.16;5078605;27;45328;-62
2021/09/03 04:00:48;;;;;;;;;32.25;31.25;;;;;20.27;55.99;101289.38;5060365;28;45286;-63
2021/09/03 04:03:14;;;;;;;;;34.25;32.75;;;;;20.25;55.80;101285.88;5061303;28;45302;-63
2021/09/03 04:05:40;;;;;;;;;32.50;30.50;;;;;20.21;55.69;101284.31;5066434;27;45590;-63
2021/09/03 04:08:06;;;;;;;;;31.00;30.25;;;;;20.21;56.14;101289.72;5080445;27;45810;-63
2021/09/03 04:10:31;;;;;;;;;35.00;31.75;;;;;20.18;55.84;101289.84;5078254;28;45405;-63
2021/09/03 04:12:57;;;;;;;;;34.75;30.00;;;;;20.16;56.13;101297.16;5078544;28;46326;-64
2021/09/03 04:15:23;;;;;;;;;33.50;32.00;;;;;20.15;56.27;101302.63;5059395;28;46383;-64
2021/09/03 04:17:48;;;;;;;;;35.25;31.50;;;;;20.12;56.02;101292.88;5078366;27;46320;-63
2021/09/03 04:20:14;;;;;;;;;38.00;33.00;;;;;20.11;56.20;101283.06;5082691;27;45510;-62
2021/09/03 04:22:39;;;;;;;;;35.75;31.75;;;;;20.10;56.17;101292.09;5079802;27;45503;-62
2021/09/03 04:25:06;;;;;;;;;34.25;32.25;;;;;20.09;55.84;101290.34;5078348;27;47099;-63
2021/09/03 04:27:32;;;;;;;;;30.00;29.50;;;;;20.08;56.38;101288.59;5063736;27;45548;-63
2021/09/03 04:29:58;;;;;;;;;33.50;31.75;;;;;20.07;56.15;101291.34;5063479;27;45546;-63
2021/09/03 04:32:23;;;;;;;;;27.75;27.00;;;;;20.02;55.95;101291.59;5070611;27;45511;-62
2021/09/03 04:34:49;;;;;;;;;27.50;27.50;;;;;20.01;56.33;101292.56;5072136;28;47298;-62
2021/09/03 04:37:14;;;;;;;;;33.00;30.25;;;;;20.01;56.24;101294.38;5070763;27;45445;-61
2021/09/03 04:39:40;;;;;;;;;36.00;32.75;;;;;19.97;56.08;101289.16;5072682;27;45387;-62
2021/09/03 04:42:06;;;;;;;;;30.25;30.00;;;;;19.97;56.27;101294.56;5063542;28;45537;-62
2021/09/03 04:44:31;;;;;;;;;34.50;31.25;;;;;19.98;56.48;101293.59;5073187;27;47452;-62
2021/09/03 04:46:57;;;;;;;;;32.25;31.25;;;;;19.96;56.66;101297.31;5066062;28;45474;-62
2021/09/03 04:49:22;;;;;;;;;37.75;34.25;;;;;19.94;56.27;101294.69;5037914;28;45850;-62
2021/09/03 04:51:48;;;;;;;;;27.50;26.00;;;;;19.92;56.54;101287.63;5069258;28;45440;-56
2021/09/03 04:54:13;;;;;;;;;38.25;34.25;;;;;19.89;56.13;101291.38;5058910;28;47177;-56
2021/09/03 04:56:40;;;;;;;;;35.00;32.50;;;;;19.85;56.05;101291.63;5070693;27;45942;-51
2021/09/03 04:59:05;;;;;;;;;35.00;33.00;;;;;19.81;56.39;101284.63;5059487;28;45453;-50
2021/09/03 05:01:31;;;;;;;;;40.00;34.25;;;;;19.78;56.53;101280.25;5074153;27;45462;-50
2021/09/03 05:03:56;;;;;;;;;37.50;33.25;;;;;19.75;56.29;101276.88;5072695;27;47368;-48
2021/09/03 05:06:22;;;;;;;;;38.50;33.75;;;;;19.70;56.53;101279.81;5059907;27;45896;-48
2021/09/03 05:08:47;;;;;;;;;34.50;31.75;;;;;19.65;56.90;101271.94;5079869;27;45469;-52
2021/09/03 05:11:13;;;;;;;;;37.75;35.00;;;;;19.62;56.61;101273.91;5060333;28;45652;-50
2021/09/03 05:13:39;;;;;;;;;42.00;37.25;;;;;19.58;56.80;101277.72;5058982;28;47274;-51
2021/09/03 05:16:04;;;;;;;;;38.50;34.50;;;;;19.54;56.37;101266.19;5075134;27;46168;-50
2021/09/03 05:18:30;;;;;;;;;34.00;31.25;;;;;19.50;57.05;101274.50;5079747;27;45651;-52
2021/09/03 05:20:55;;;;;;;;;37.75;33.25;;;;;19.48;56.79;101268.34;5060432;27;45604;-49
2021/09/03 05:23:21;;;;;;;;;39.75;35.00;;;;;19.46;56.98;101272.91;5055485;28;46478;-51
2021/09/03 05:25:46;;;;;;;;;39.00;35.50;;;;;19.42;57.23;101277.56;5070141;27;49537;-51
2021/09/03 05:28:12;;;;;;;;;42.00;35.00;;;;;19.41;57.09;101273.13;5079492;27;45715;-51
2021/09/03 05:30:37;;;;;;;;;45.25;37.50;;;;;19.40;57.35;101282.16;5072060;27;45659;-52
2021/09/03 05:33:03;;;;;;;;;42.00;35.50;;;;;19.37;56.98;101285.88;5075591;27;46080;-49
2021/09/03 05:35:29;;;;;;;;;44.25;37.00;;;;;19.36;56.99;101284.13;5057401;28;45294;-53
2021/09/03 05:37:55;;;;;;;;;41.75;37.25;;;;;19.31;57.23;101283.50;5077352;27;46028;-51
2021/09/03 05:40:22;;;;;;;;;37.75;33.50;;;;;19.29;57.35;101290.75;5081463;27;45607;-52
2021/09/03 05:42:48;;;;;;;;;46.75;36.75;;;;;19.27;57.62;101283.72;5076932;27;48578;-52
2021/09/03 05:45:13;;;;;;;;;43.50;35.25;;;;;19.25;57.47;101282.91;5085458;27;45699;-50
2021/09/03 05:47:45;;;;;;;;;41.00;36.00;;;;;19.24;57.32;101289.25;5080296;27;45581;-50
2021/09/03 05:50:13;;;;;;;;;44.25;37.25;;;;;19.22;57.60;101281.25;5070669;27;45510;-52
2021/09/03 05:52:40;;;;;;;;;43.00;37.25;;;;;19.20;57.40;101284.97;5067541;27;47200;-50
2021/09/03 05:55:06;;;;;;;;;43.50;36.50;;;;;19.18;57.30;101287.69;5072657;27;45380;-50
2021/09/03 05:57:31;;;;;;;;;40.00;35.50;;;;;19.18;57.44;101292.22;5078031;27;45373;-50
2021/09/03 05:59:57;;;;;;;;;41.75;34.75;;;;;19.15;57.31;101292.38;5080130;27;45216;-52
2021/09/03 06:02:22;;;;;;;;;39.00;34.50;;;;;19.14;57.78;101288.81;5073470;27;47328;-51
2021/09/03 06:04:48;;;;;;;;;41.00;36.50;;;;;19.14;57.41;101293.31;5079724;27;45351;-47
2021/09/03 06:07:13;;;;;;;;;39.50;34.75;;;;;19.13;57.60;101302.34;5073932;28;45556;-49
2021/09/03 06:09:39;;;;;;;;;44.25;37.75;;;;;19.12;57.61;101298.78;5067502;28;45412;-47
2021/09/03 06:12:04;;;;;;;;;42.25;34.50;;;;;19.09;57.68;101291.72;5080191;27;47083;-52
2021/09/03 06:14:30;;;;;;;;;39.25;35.00;;;;;19.07;57.76;101293.63;5080332;27;45754;-50
2021/09/03 06:16:56;;;;;;;;;44.00;36.75;;;;;19.10;57.83;101297.97;5080398;27;45758;-50
2021/09/03 06:19:21;;;;;;;;;40.75;34.50;;;;;19.11;57.53;101294.34;5064231;28;45327;-48
2021/09/03 06:21:47;;;;;;;;;42.25;35.00;;;;;19.11;57.81;101288.97;5062194;28;48449;-50
2021/09/03 06:24:32;;;;;;;;;38.25;35.25;;;;;19.09;57.63;101299.81;5080353;27;45508;-48
2021/09/03 06:27:06;;;;;;;;;40.75;35.50;;;;;19.06;57.73;101297.28;5059388;27;45495;-53
2021/09/03 06:32:16;;;;;;;;;41.25;36.25;;;;;19.12;57.83;101296.09;5080284;27;47654;-51
2021/09/03 06:34:48;;;;;;;;;46.50;37.50;;;;;19.15;57.81;101298.63;5061794;28;45649;-52
2021/09/03 06:37:15;;;;;;;;;42.00;36.25;;;;;19.19;57.82;101294.88;5080708;27;46054;-52
2021/09/03 06:39:41;;;;;;;;;49.00;38.25;;;;;19.24;57.64;101300.00;5062639;28;45646;-53
2021/09/03 06:42:08;;;;;;;;;39.75;34.50;;;;;19.27;57.85;101289.97;5068307;27;46828;-54
2021/09/03 06:44:34;;;;;;;;;45.75;36.25;;;;;19.29;57.66;101290.75;5060811;28;45718;-48
2021/09/03 06:47:00;;;;;;;;;42.00;37.25;;;;;19.33;57.53;101295.06;5079434;27;45613;-51
2021/09/03 06:49:26;;;;;;;;;40.75;34.50;;;;;19.36;57.45;101294.03;5079834;27;45707;-52
2021/09/03 06:51:52;;;;;;;;;40.50;35.00;;;;;19.37;57.32;101285.88;5079788;27;48210;-55
2021/09/03 06:54:17;;;;;;;;;40.25;34.25;;;;;19.40;57.67;101284.84;5060991;28;45283;-52
2021/09/03 06:56:44;;;;;;;;;41.25;35.75;;;;;19.42;57.72;101289.19;5088253;27;45451;-48
2021/09/03 06:59:10;;;;;;;;;37.00;33.00;;;;;19.44;57.78;101291.84;5080991;27;45916;-52
2021/09/03 07:01:35;;;;;;;;;43.25;36.00;;;;;19.48;57.49;101298.81;5079566;27;46512;-52
2021/09/03 07:04:01;;;;;;;;;43.75;36.50;;;;;19.51;57.12;101303.16;5080738;27;45360;-51
2021/09/03 07:06:27;;;;;;;;;43.25;35.75;;;;;19.52;57.30;101299.53;5080027;27;45777;-50
2021/09/03 07:08:52;;;;;;;;;34.50;33.25;;;;;19.55;57.29;101299.41;5061285;28;45468;-55
2021/09/03 07:11:18;;;;;;;;;32.75;31.50;;;;;19.58;57.71;101299.28;5080850;27;48175;-51
2021/09/03 07:13:44;;;;;;;;;36.50;32.25;;;;;19.60;57.41;101298.25;5080059;27;45366;-51
2021/09/03 07:16:09;;;;;;;;;37.00;32.50;;;;;19.64;57.13;101291.75;5062746;28;45911;-53
2021/09/03 07:18:35;;;;;;;;;41.25;35.50;;;;;19.68;57.43;101301.41;5083551;27;45416;-51
2021/09/03 07:21:00;;;;;;;;;37.75;32.00;;;;;19.73;57.20;101300.31;5062966;28;47068;-51
2021/09/03 07:23:26;;;;;;;;;34.00;31.75;;;;;19.76;57.16;101292.94;5079547;27;45283;-53
2021/09/03 07:25:52;;;;;;;;;35.25;31.75;;;;;19.80;56.80;101304.41;5079549;27;45457;-52
2021/09/03 07:28:17;;;;;;;;;36.75;32.00;;;;;19.84;57.20;101295.25;5065038;27;45299;-52
2021/09/03 07:30:43;;;;;;;;;32.25;31.00;;;;;19.87;56.92;101292.41;5081241;27;47978;-52
2021/09/03 07:33:09;;;;;;;;;31.50;31.50;;;;;19.91;56.84;101294.84;5082045;27;45524;-48
2021/09/03 07:35:34;;;;;;;;;32.00;31.25;;;;;19.94;57.14;101297.38;5080481;27;45500;-48
2021/09/03 07:38:00;;;;;;;;;35.75;32.75;;;;;19.99;56.77;101294.47;5079752;27;45499;-48
2021/09/03 07:40:26;;;;;;;;;36.00;33.25;;;;;20.01;56.45;101297.94;5050825;27;45561;-51
2021/09/03 07:42:54;;;;;;;;;31.25;30.25;;;;;20.04;56.81;101297.78;5066065;27;45774;-52
2021/09/03 07:45:20;;;;;;;;;32.25;31.25;;;;;20.06;57.00;101293.19;5080650;28;45252;-52
2021/09/03 07:47:45;;;;;;;;;40.50;35.75;;;;;20.10;56.78;101296.59;5079795;27;45464;-51
2021/09/03 07:50:11;;;;;;;;;30.00;29.25;;;;;20.14;56.46;101293.66;5078080;28;47031;-51
2021/09/03 07:52:38;;;;;;;;;28.25;28.25;;;;;20.16;56.42;101294.44;5045066;28;45403;-51
2021/09/03 07:55:04;;;;;;;;;29.75;27.50;;;;;20.19;56.75;101283.50;5063417;27;45380;-51
2021/09/03 07:57:30;;;;;;;;;30.75;28.00;;;;;20.25;56.75;101285.88;5085433;27;45468;-52
2021/09/03 07:59:55;;;;;;;;;28.75;25.75;;;;;20.28;56.78;101284.84;5058812;28;47222;-52
2021/09/03 08:02:22;;;;;;;;;28.00;25.25;;;;;20.31;56.57;101287.38;5076957;28;45480;-51
2021/09/03 08:04:48;;;;;;;;;27.50;24.75;;;;;20.37;56.23;101294.28;5066508;27;45337;-51
2021/09/03 08:07:14;;;;;;;;;24.50;24.50;;;;;20.41;55.92;101287.75;5079434;27;45937;-52
2021/09/03 08:09:39;;;;;;;;;30.00;27.50;;;;;20.44;55.80;101290.31;5064369;27;45713;-53
2021/09/03 08:12:05;;;;;;;;;32.00;29.25;;;;;20.46;56.38;101292.00;5079199;27;46301;-50
2021/09/03 08:14:32;;;;;;;;;39.50;33.75;;;;;20.50;56.03;101288.19;5079029;27;45381;-52
2021/09/03 08:16:57;;;;;;;;;32.50;30.00;;;;;20.52;55.65;101288.97;5081433;27;46153;-53
2021/09/03 08:19:23;;;;;;;;;28.75;28.75;;;;;20.55;55.98;101290.63;5059488;27;46285;-52
2021/09/03 08:21:49;;;;;;;;;29.00;28.00;;;;;20.59;55.39;101294.03;5061416;27;45372;-51
2021/09/03 08:24:16;;;;;;;;;25.50;25.50;;;;;20.59;55.31;101292.22;5080207;27;45531;-50
2021/09/03 08:26:43;;;;;;;;;23.00;22.50;;;;;20.63;55.47;101288.38;5079948;27;45403;-50
2021/09/03 08:29:09;;;;;;;;;27.25;26.50;;;;;20.67;55.94;101289.09;5066402;28;46933;-50
2021/09/03 08:31:34;;;;;;;;;30.50;28.50;;;;;20.71;55.65;101285.25;5079716;28;45977;-50
2021/09/03 08:34:00;;;;;;;;;34.00;31.00;;;;;20.76;55.85;101288.59;5081105;27;45322;-52
2021/09/03 08:36:26;;;;;;;;;29.25;28.25;;;;;20.80;55.19;101279.38;5079827;27;45411;-50
2021/09/03 08:38:51;;;;;;;;;27.25;24.25;;;;;20.83;55.32;101279.19;5079146;27;45430;-52
2021/09/03 08:41:20;;;;;;;;;28.75;26.75;;;;;20.88;55.45;101287.03;5080671;28;45297;-48
2021/09/03 08:43:45;;;;;;;;;28.00;26.50;;;;;20.91;55.73;101276.94;5061609;27;45718;-50
2021/09/03 08:46:13;;;;;;;;;28.75;28.75;;;;;20.96;55.37;101282.06;5061217;28;45627;-53
2021/09/03 08:48:41;;;;;;;;;25.50;25.00;;;;;20.99;55.34;101279.22;5076610;27;45462;-50
2021/09/03 08:51:07;;;;;;;;;29.75;28.50;;;;;21.02;54.82;101277.22;5062485;27;46102;-51
2021/09/03 08:53:33;;;;;;;;;29.25;27.75;;;;;21.05;55.34;101266.25;5076621;27;45501;-47
2021/09/03 08:55:59;;;;;;;;;33.00;31.00;;;;;21.10;54.79;101271.41;5069265;28;45359;-53
2021/09/03 08:58:25;;;;;;;;;25.75;23.50;;;;;21.14;54.69;101264.84;5079794;27;46744;-52
2021/09/03 09:01:12;;;;;;;;;29.50;26.25;;;;;21.19;55.20;101269.97;5080237;27;45436;-49
2021/09/03 09:03:38;;;;;;;;;30.75;28.75;;;;;21.23;54.86;101263.47;5077495;27;45375;-50
2021/09/03 09:06:05;;;;;;;;;27.75;24.75;;;;;21.26;54.44;101260.63;5053422;28;45383;-53
2021/09/03 09:08:33;;;;;;;;;28.75;28.75;;;;;21.31;54.69;101263.91;5080771;27;48379;-52
2021/09/03 09:11:02;;;;;;;;;26.00;25.75;;;;;21.35;54.13;101273.59;5074330;28;45973;-53
2021/09/03 09:13:31;;;;;;;;;34.00;31.50;;;;;21.40;54.39;101266.09;5067427;27;45406;-54
2021/09/03 09:15:59;;;;;;;;;31.50;30.50;;;;;21.42;53.97;101265.03;5076860;28;45494;-50
2021/09/03 09:18:53;;;;;;;;;27.00;27.00;;;;;21.48;54.10;101261.13;5059512;28;48100;-52
2021/09/03 09:21:20;;;;;;;;;31.00;29.75;;;;;21.53;54.14;101266.25;5061162;27;45523;-51
2021/09/03 09:23:48;;;;;;;;;34.50;32.25;;;;;21.58;54.35;101261.44;5082084;27;45365;-47
2021/09/03 09:26:16;;;;;;;;;26.50;25.00;;;;;21.63;53.87;101262.91;5081710;27;45939;-51
2021/09/03 09:28:42;;;;;;;;;23.50;22.50;;;;;21.67;53.90;101269.88;5064634;28;47470;-48
2021/09/03 09:31:07;;;;;;;;;24.00;23.75;;;;;21.70;54.30;101261.56;5080817;28;45407;-49
2021/09/03 09:33:34;;;;;;;;;23.00;22.25;;;;;21.74;54.06;101262.28;5063028;28;45291;-53
2021/09/03 09:36:01;;;;;;;;;20.25;20.00;;;;;21.79;53.44;101262.00;5080978;28;45600;-51
2021/09/03 09:38:29;;;;;;;;;20.00;20.00;;;;;21.82;53.47;101262.69;5080773;27;45690;-51
2021/09/03 09:40:57;;;;;;;;;24.00;22.25;;;;;21.86;53.24;101255.28;5062746;27;45283;-53
2021/09/03 09:43:43;;;;;;;;;20.50;19.50;;;;;21.90;53.20;101255.00;5062508;27;45407;-52
2021/09/03 09:46:13;;;;;;;;;21.25;21.25;;;;;21.94;53.52;101264.66;5061522;28;45638;-52
2021/09/03 09:48:49;;;;;;;;;19.50;19.25;;;;;21.97;52.84;101253.63;5063556;28;45575;-50
2021/09/03 09:51:34;;;;;;;;;22.75;18.25;;;;;22.01;52.98;101247.09;5070094;27;45391;-51
2021/09/03 09:54:01;;;;;;;;;21.75;19.25;;;;;22.05;53.01;101247.78;5078978;27;45589;-51
2021/09/03 09:56:30;;;;;;;;;21.00;21.00;;;;;22.09;53.13;101248.50;5064468;28;45695;-53
2021/09/03 09:58:57;;;;;;;;;22.25;19.75;;;;;22.13;52.88;101245.53;5070842;27;47296;-52
2021/09/03 10:01:23;;;;;;;;;18.75;17.25;;;;;22.16;52.88;101241.75;5079426;27;46026;-53
2021/09/03 10:03:50;;;;;;;;;20.25;20.25;;;;;22.18;52.84;101240.69;5083038;27;45798;-46
2021/09/03 10:06:17;;;;;;;;;20.50;18.75;;;;;22.23;52.84;101237.69;5083373;27;45472;-48
2021/09/03 10:08:45;;;;;;;;;20.50;19.75;;;;;22.27;52.71;101236.56;5062944;27;47906;-52
2021/09/03 10:11:21;;;;;;;;;29.50;29.50;;;;;22.32;52.50;101242.53;5042884;27;45644;-52
2021/09/03 10:13:48;;;;;;;;;21.25;21.25;;;;;22.33;52.58;101228.91;5089870;27;45335;-55
2021/09/03 10:16:14;;;;;;;;;24.75;23.00;;;;;22.38;52.31;101231.34;5065240;28;45559;-53
2021/09/03 10:18:42;;;;;;;;;19.25;19.25;;;;;22.42;52.31;101230.19;5061928;28;45468;-51
2021/09/03 10:21:09;;;;;;;;;21.25;17.75;;;;;22.47;52.34;101221.75;5061589;27;45464;-52
2021/09/03 10:24:02;;;;;;;;;21.00;19.50;;;;;22.52;51.79;101225.06;5080157;28;45645;-47
2021/09/03 10:26:40;;;;;;;;;22.75;20.00;;;;;22.55;51.94;101223.03;5057413;28;45481;-53
2021/09/03 10:29:13;;;;;;;;;20.25;18.00;;;;;22.60;51.87;101226.28;5065531;28;46405;-51
2021/09/03 10:32:14;;;;;;;;;17.75;16.25;;;;;22.66;51.58;101221.47;5083176;27;45306;-50
2021/09/03 10:37:14;;;;;;;;;20.25;19.50;;;;;22.74;51.70;101219.13;5079777;27;45554;-51
2021/09/03 10:39:49;;;;;;;;;22.00;20.25;;;;;22.79;51.59;101214.31;5079219;27;47452;-50
2021/09/03 10:45:04;;;;;;;;;18.50;17.75;;;;;22.88;51.26;101219.16;5077473;27;45457;-50
2021/09/03 10:47:35;;;;;;;;;20.00;20.00;;;;;22.92;51.81;101220.69;5036256;28;45510;-47
2021/09/03 10:50:23;;;;;;;;;22.00;22.00;;;;;22.98;51.46;101219.41;5055783;27;47135;-50
2021/09/03 10:53:07;;;;;;;;;27.00;23.50;;;;;23.01;50.99;101211.13;5059841;27;45933;-51
2021/09/03 10:55:55;;;;;;;;;21.50;20.50;;;;;23.05;50.82;101208.09;5047902;28;45443;-48
2021/09/03 10:58:38;;;;;;;;;23.00;20.00;;;;;23.10;51.10;101213.19;5059805;28;45645;-49
2021/09/03 11:01:12;;;;;;;;;26.25;22.25;;;;;23.14;50.94;101202.06;5052545;28;46647;-53
2021/09/03 11:03:44;;;;;;;;;22.25;19.75;;;;;23.20;51.15;101198.06;5058350;28;45299;-49
2021/09/03 11:06:13;;;;;;;;;16.50;16.50;;;;;23.24;51.33;101199.59;5059341;28;45642;-51
2021/09/03 11:08:40;;;;;;;;;14.25;13.50;;;;;23.28;51.18;101195.75;5059412;28;45268;-52
2021/09/03 11:11:22;;;;;;;;;16.75;16.25;;;;;23.34;50.86;101199.84;5057538;28;48216;-52
2021/09/03 11:13:50;;;;;;;;;19.50;17.75;;;;;23.37;50.89;101191.53;5062134;28;45664;-49
2021/09/03 11:16:32;;;;;;;;;19.00;19.00;;;;;23.41;50.67;101185.81;5059658;28;45352;-51